createdAt,value
2018-08-27T00:00:09.089Z,99.90
2018-08-27T00:02:37.675Z,99.90
2018-08-27T00:05:06.194Z,99.90
2018-08-27T00:07:35.356Z,99.90
2018-08-27T00:10:03.942Z,99.90
2018-08-27T00:12:32.429Z,99.90
2018-08-27T00:15:00.938Z,99.90
2018-08-27T00:17:29.418Z,99.90
2018-08-27T00:19:58.534Z,99.90
2018-08-27T00:22:27.082Z,99.90
2018-08-27T00:24:55.545Z,99.90
2018-08-27T00:27:24.000Z,99.90
2018-08-27T00:29:52.933Z,99.90
2018-08-27T00:32:21.394Z,99.90
2018-08-27T00:34:49.843Z,99.90
2018-08-27T00:37:18.347Z,99.90
2018-08-27T00:39:46.850Z,99.90
2018-08-27T00:43:08.626Z,99.90
2018-08-27T00:45:37.110Z,99.90
2018-08-27T00:48:05.975Z,99.90
2018-08-27T00:50:34.955Z,99.90
2018-08-27T00:53:03.456Z,99.90
2018-08-27T00:55:31.949Z,99.90
2018-08-27T00:58:00.452Z,99.90
2018-08-27T01:00:28.949Z,99.90
2018-08-27T01:02:57.930Z,99.90
2018-08-27T01:05:26.425Z,99.90
2018-08-27T01:07:54.927Z,99.90
2018-08-27T01:10:23.423Z,99.90
2018-08-27T01:12:52.251Z,99.90
2018-08-27T01:15:20.762Z,99.90
2018-08-27T01:17:49.229Z,99.90
2018-08-27T01:20:18.629Z,99.90
2018-08-27T01:22:47.095Z,99.90
2018-08-27T01:25:17.374Z,99.90
2018-08-27T01:27:45.899Z,99.90
2018-08-27T01:35:08.087Z,99.90
2018-08-27T01:37:36.613Z,99.90
2018-08-27T01:40:05.188Z,99.90
2018-08-27T01:42:33.670Z,99.90
2018-08-27T01:45:02.141Z,99.90
2018-08-27T01:47:30.609Z,99.90
2018-08-27T01:49:59.113Z,99.90
2018-08-27T01:52:27.580Z,99.90
2018-08-27T01:54:56.041Z,99.90
2018-08-27T01:57:24.577Z,99.90
2018-08-27T01:59:53.061Z,99.90
2018-08-27T02:02:21.512Z,99.90
2018-08-27T02:04:50.031Z,99.90
2018-08-27T02:07:18.550Z,99.90
2018-08-27T02:09:47.046Z,99.90
2018-08-27T02:12:17.371Z,99.90
2018-08-27T02:14:45.842Z,99.90
2018-08-27T02:22:13.387Z,99.90
2018-08-27T02:24:41.886Z,99.90
2018-08-27T02:27:10.357Z,99.90
2018-08-27T02:29:38.863Z,99.90
2018-08-27T02:32:07.367Z,99.90
2018-08-27T02:34:35.830Z,99.90
2018-08-27T02:37:04.370Z,99.90
2018-08-27T02:39:32.834Z,99.90
2018-08-27T02:42:01.323Z,99.90
2018-08-27T02:44:31.366Z,99.90
2018-08-27T02:46:59.874Z,99.90
2018-08-27T02:49:28.372Z,99.90
2018-08-27T02:51:56.890Z,99.90
2018-08-27T02:54:25.668Z,99.90
2018-08-27T02:56:54.820Z,99.90
2018-08-27T02:59:23.872Z,99.90
2018-08-27T03:01:52.363Z,99.90
2018-08-27T03:04:20.837Z,99.90
2018-08-27T03:06:50.404Z,99.90
2018-08-27T03:09:18.914Z,99.90
2018-08-27T03:11:47.445Z,99.90
2018-08-27T03:14:17.358Z,99.90
2018-08-27T03:16:45.839Z,99.90
2018-08-27T03:24:09.649Z,99.90
2018-08-27T03:26:38.336Z,99.90
2018-08-27T03:29:06.870Z,99.90
2018-08-27T03:31:35.408Z,99.90
2018-08-27T03:34:04.027Z,99.90
2018-08-27T03:36:32.705Z,99.90
2018-08-27T03:39:01.424Z,99.90
2018-08-27T03:41:29.914Z,99.90
2018-08-27T03:43:58.366Z,99.90
2018-08-27T03:46:27.222Z,99.90
2018-08-27T03:48:55.700Z,99.90
2018-08-27T03:51:24.222Z,99.90
2018-08-27T03:53:52.707Z,99.90
2018-08-27T03:56:21.178Z,99.90
2018-08-27T03:58:49.866Z,99.90
2018-08-27T04:01:18.341Z,99.90
2018-08-27T04:03:47.336Z,99.90
2018-08-27T04:06:17.313Z,99.90
2018-08-27T04:08:46.290Z,99.90
2018-08-27T04:16:08.867Z,99.90
2018-08-27T04:18:38.071Z,99.90
2018-08-27T04:21:06.530Z,99.90
2018-08-27T04:23:35.679Z,99.90
2018-08-27T04:26:04.990Z,99.90
2018-08-27T04:28:35.100Z,99.90
2018-08-27T04:31:06.776Z,99.90
2018-08-27T04:33:35.258Z,99.90
2018-08-27T04:36:03.771Z,99.90
2018-08-27T04:38:32.277Z,99.90
2018-08-27T04:41:01.163Z,99.90
2018-08-27T04:43:29.675Z,99.90
2018-08-27T04:45:58.154Z,99.90
2018-08-27T04:48:26.599Z,99.90
2018-08-27T04:50:55.057Z,99.90
2018-08-27T04:53:23.629Z,99.90
2018-08-27T04:55:53.235Z,99.90
2018-08-27T04:58:23.497Z,99.90
2018-08-27T05:00:51.973Z,99.90
2018-08-27T05:03:20.588Z,99.90
2018-08-27T05:05:49.044Z,99.90
2018-08-27T05:08:17.532Z,99.90
2018-08-27T05:10:47.027Z,99.90
2018-08-27T05:18:09.601Z,99.90
2018-08-27T05:20:38.093Z,99.90
2018-08-27T05:23:06.637Z,99.90
2018-08-27T05:25:35.197Z,99.90
2018-08-27T05:28:04.666Z,99.90
2018-08-27T05:30:33.174Z,99.90
2018-08-27T05:33:02.300Z,99.90
2018-08-27T05:35:30.760Z,99.90
2018-08-27T05:37:59.245Z,99.90
2018-08-27T05:40:28.570Z,99.90
2018-08-27T05:42:57.045Z,99.90
2018-08-27T05:45:25.507Z,99.90
2018-08-27T05:47:54.025Z,99.90
2018-08-27T05:50:22.482Z,99.90
2018-08-27T05:52:50.955Z,99.90
2018-08-27T05:55:19.445Z,99.90
2018-08-27T05:57:47.927Z,99.90
2018-08-27T06:05:09.657Z,99.90
2018-08-27T06:07:38.849Z,99.90
2018-08-27T06:10:08.496Z,99.90
2018-08-27T06:12:37.055Z,99.90
2018-08-27T06:15:08.654Z,99.90
2018-08-27T06:17:37.125Z,99.90
2018-08-27T06:20:05.861Z,99.90
2018-08-27T06:22:34.700Z,99.90
2018-08-27T06:25:03.215Z,99.90
2018-08-27T06:27:32.070Z,99.90
2018-08-27T06:30:01.345Z,99.90
2018-08-27T06:32:29.847Z,99.90
2018-08-27T06:34:58.363Z,99.30
2018-08-27T06:37:26.894Z,97.40
2018-08-27T06:39:55.370Z,93.70
2018-08-27T06:42:24.038Z,88.10
2018-08-27T06:44:52.486Z,78.90
2018-08-27T06:47:20.983Z,70.50
2018-08-27T06:49:49.552Z,61.30
2018-08-27T06:52:18.055Z,56.00
2018-08-27T06:54:46.509Z,52.30
2018-08-27T07:02:12.398Z,44.70
2018-08-27T07:04:43.198Z,44.50
2018-08-27T07:07:11.699Z,41.20
2018-08-27T07:09:40.723Z,41.60
2018-08-27T07:12:09.271Z,37.70
2018-08-27T07:14:37.781Z,36.20
2018-08-27T07:17:06.574Z,36.60
2018-08-27T07:19:36.312Z,34.60
2018-08-27T07:22:04.818Z,34.00
2018-08-27T07:24:33.334Z,34.10
2018-08-27T07:27:01.894Z,32.90
2018-08-27T07:29:30.859Z,31.20
2018-08-27T07:32:00.390Z,31.50
2018-08-27T07:34:28.866Z,30.60
2018-08-27T07:36:57.401Z,29.90
2018-08-27T07:39:25.992Z,30.80
2018-08-27T07:41:54.480Z,30.40
2018-08-27T07:44:22.959Z,29.90
2018-08-27T07:46:52.039Z,30.00
2018-08-27T07:49:20.542Z,29.60
2018-08-27T07:51:49.009Z,30.00
2018-08-27T07:54:17.825Z,29.20
2018-08-27T07:56:46.679Z,29.70
2018-08-27T08:04:13.375Z,29.30
2018-08-27T08:06:41.912Z,28.50
2018-08-27T08:09:11.254Z,28.10
2018-08-27T08:11:40.939Z,28.20
2018-08-27T08:14:09.526Z,27.10
2018-08-27T08:16:38.061Z,27.90
2018-08-27T08:19:06.829Z,26.80
2018-08-27T08:21:36.025Z,26.90
2018-08-27T08:26:33.210Z,25.00
2018-08-27T08:29:01.737Z,24.80
2018-08-27T08:31:30.211Z,25.40
2018-08-27T08:33:59.313Z,25.90
2018-08-27T08:36:27.798Z,25.20
2018-08-27T08:38:57.067Z,24.80
2018-08-27T08:41:25.558Z,23.80
2018-08-27T08:43:54.011Z,22.90
2018-08-27T08:46:23.312Z,22.00
2018-08-27T08:48:51.786Z,22.20
2018-08-27T08:51:20.283Z,22.50
2018-08-27T08:53:49.334Z,23.00
2018-08-27T08:56:18.410Z,21.90
2018-08-27T08:58:46.867Z,20.20
2018-08-27T09:06:09.541Z,21.30
2018-08-27T09:08:41.514Z,20.30
2018-08-27T09:11:10.047Z,20.40
2018-08-27T09:13:38.536Z,21.20
2018-08-27T09:16:07.410Z,21.40
2018-08-27T09:18:36.406Z,20.90
2018-08-27T09:21:05.276Z,20.90
2018-08-27T09:23:34.364Z,20.10
2018-08-27T09:26:05.980Z,20.50
2018-08-27T09:28:34.491Z,20.70
2018-08-27T09:31:02.973Z,20.30
2018-08-27T09:33:33.501Z,19.90
2018-08-27T09:36:02.581Z,19.90
2018-08-27T09:38:31.126Z,19.70
2018-08-27T09:40:59.993Z,20.00
2018-08-27T09:43:30.940Z,20.20
2018-08-27T09:45:59.467Z,20.10
2018-08-27T09:48:29.556Z,19.20
2018-08-27T09:50:58.021Z,19.60
2018-08-27T09:53:27.999Z,18.60
2018-08-27T09:55:56.591Z,18.90
2018-08-27T09:58:27.890Z,19.10
2018-08-27T10:01:02.277Z,19.70
2018-08-27T10:03:31.445Z,20.00
2018-08-27T10:06:00.034Z,18.70
2018-08-27T10:08:28.540Z,18.50
2018-08-27T10:10:57.018Z,21.30
2018-08-27T10:13:25.739Z,21.40
2018-08-27T10:15:54.532Z,20.80
2018-08-27T10:18:25.095Z,21.50
2018-08-27T10:20:53.607Z,21.80
2018-08-27T10:23:22.519Z,21.80
2018-08-27T10:25:51.360Z,24.00
2018-08-27T10:28:20.656Z,25.50
2018-08-27T10:30:49.215Z,24.90
2018-08-27T10:33:17.678Z,25.50
2018-08-27T10:35:46.169Z,28.10
2018-08-27T10:43:10.775Z,28.90
2018-08-27T10:45:39.258Z,31.10
2018-08-27T10:48:07.717Z,30.00
2018-08-27T10:50:36.204Z,29.50
2018-08-27T10:53:04.684Z,31.30
2018-08-27T10:55:33.156Z,30.10
2018-08-27T10:58:01.659Z,30.30
2018-08-27T11:00:30.103Z,30.70
2018-08-27T11:02:58.616Z,28.90
2018-08-27T11:05:27.609Z,29.50
2018-08-27T11:07:56.069Z,29.80
2018-08-27T11:10:24.929Z,31.10
2018-08-27T11:12:53.418Z,31.40
2018-08-27T11:15:21.934Z,30.20
2018-08-27T11:17:50.447Z,31.30
2018-08-27T11:20:19.047Z,31.20
2018-08-27T11:22:47.528Z,32.90
2018-08-27T11:30:09.807Z,32.10
2018-08-27T11:32:38.779Z,31.90
2018-08-27T11:35:08.527Z,30.80
2018-08-27T11:37:37.387Z,31.60
2018-08-27T11:40:09.062Z,31.00
2018-08-27T11:42:40.825Z,31.60
2018-08-27T11:45:09.576Z,31.50
2018-08-27T11:47:38.483Z,29.20
2018-08-27T11:50:08.035Z,29.90
2018-08-27T11:52:36.578Z,30.30
2018-08-27T11:55:05.373Z,32.80
2018-08-27T11:57:33.880Z,30.20
2018-08-27T12:00:02.529Z,29.50
2018-08-27T12:02:31.823Z,30.30
2018-08-27T12:05:00.380Z,30.80
2018-08-27T12:07:28.912Z,30.10
2018-08-27T12:09:57.602Z,31.30
2018-08-27T12:12:26.642Z,32.70
2018-08-27T12:14:55.560Z,31.60
2018-08-27T12:17:24.003Z,30.70
2018-08-27T12:31:02.234Z,31.00
2018-08-27T12:33:30.683Z,32.20
2018-08-27T12:35:59.457Z,31.90
2018-08-27T12:38:28.026Z,31.20
2018-08-27T12:40:57.152Z,28.40
2018-08-27T12:43:25.674Z,28.90
2018-08-27T12:45:54.225Z,28.70
2018-08-27T12:48:22.721Z,30.60
2018-08-27T12:50:51.328Z,33.30
2018-08-27T12:53:20.091Z,31.40
2018-08-27T12:55:49.014Z,32.70
2018-08-27T12:58:17.986Z,31.80
2018-08-27T13:00:47.533Z,31.50
2018-08-27T13:03:17.431Z,29.90
2018-08-27T13:05:46.121Z,32.30
2018-08-27T13:13:11.913Z,31.60
2018-08-27T13:15:40.393Z,30.90
2018-08-27T13:18:08.899Z,31.00
2018-08-27T13:20:37.671Z,31.50
2018-08-27T13:23:06.163Z,29.80
2018-08-27T13:25:34.750Z,29.80
2018-08-27T13:28:03.223Z,28.40
2018-08-27T13:30:31.786Z,27.60
2018-08-27T13:33:00.264Z,28.00
2018-08-27T13:35:28.801Z,26.90
2018-08-27T13:37:57.311Z,27.00
2018-08-27T13:40:25.792Z,26.90
2018-08-27T13:42:54.623Z,26.60
2018-08-27T13:45:23.058Z,25.60
2018-08-27T13:47:51.520Z,26.70
2018-08-27T13:50:20.034Z,26.80
2018-08-27T13:52:49.286Z,27.20
2018-08-27T13:55:17.794Z,28.00
2018-08-27T13:57:46.855Z,28.70
2018-08-27T14:05:11.076Z,28.30
2018-08-27T14:07:39.531Z,27.30
2018-08-27T14:10:08.074Z,28.20
2018-08-27T14:12:36.593Z,28.00
2018-08-27T14:15:05.799Z,27.70
2018-08-27T14:17:34.194Z,27.70
2018-08-27T14:20:02.921Z,28.00
2018-08-27T14:22:31.304Z,28.10
2018-08-27T14:25:00.361Z,28.70
2018-08-27T14:27:29.119Z,27.20
2018-08-27T14:29:57.919Z,28.00
2018-08-27T14:32:26.386Z,28.40
2018-08-27T14:34:55.120Z,28.90
2018-08-27T14:37:23.631Z,28.20
2018-08-27T14:39:52.357Z,29.30
2018-08-27T14:42:21.560Z,30.00
2018-08-27T14:44:51.239Z,30.00
2018-08-27T14:47:19.741Z,30.00
2018-08-27T14:49:48.241Z,30.00
2018-08-27T14:52:17.342Z,30.10
2018-08-27T14:54:45.845Z,30.10
2018-08-27T15:02:10.634Z,30.50
2018-08-27T15:04:39.119Z,30.80
2018-08-27T15:07:07.630Z,30.90
2018-08-27T15:09:36.178Z,30.70
2018-08-27T15:12:04.677Z,31.00
2018-08-27T15:14:33.210Z,30.90
2018-08-27T15:17:01.814Z,31.20
2018-08-27T15:19:30.240Z,32.30
2018-08-27T15:21:59.102Z,32.60
2018-08-27T15:24:27.846Z,32.50
2018-08-27T15:26:56.298Z,34.40
2018-08-27T15:29:25.131Z,34.80
2018-08-27T15:31:53.622Z,34.80
2018-08-27T15:34:22.873Z,34.20
2018-08-27T15:36:51.446Z,34.40
2018-08-27T15:39:20.496Z,35.20
2018-08-27T15:41:48.972Z,35.40
2018-08-27T15:44:18.719Z,36.00
2018-08-27T15:46:48.485Z,35.80
2018-08-27T15:49:17.527Z,35.70
2018-08-27T15:51:46.351Z,37.80
2018-08-27T15:59:11.054Z,38.20
2018-08-27T16:01:39.741Z,39.90
2018-08-27T16:04:08.293Z,39.60
2018-08-27T16:06:36.842Z,39.40
2018-08-27T16:09:06.418Z,39.50
2018-08-27T16:11:34.910Z,39.20
2018-08-27T16:14:03.442Z,39.90
2018-08-27T16:16:31.969Z,40.20
2018-08-27T16:19:00.457Z,39.70
2018-08-27T16:21:28.985Z,40.30
2018-08-27T16:23:58.365Z,40.50
2018-08-27T16:26:26.834Z,39.70
2018-08-27T16:28:55.502Z,39.70
2018-08-27T16:31:23.966Z,40.60
2018-08-27T16:33:53.214Z,41.00
2018-08-27T16:36:21.722Z,40.90
2018-08-27T16:38:50.250Z,41.50
2018-08-27T16:41:20.190Z,41.30
2018-08-27T16:43:48.711Z,41.70
2018-08-27T16:46:17.387Z,41.20
2018-08-27T16:48:46.148Z,41.50
2018-08-27T16:56:15.486Z,42.30
2018-08-27T16:58:43.962Z,42.50
2018-08-27T17:01:12.714Z,42.60
2018-08-27T17:03:41.276Z,42.90
2018-08-27T17:06:09.770Z,43.50
2018-08-27T17:08:38.254Z,43.70
2018-08-27T17:11:06.783Z,44.80
2018-08-27T17:13:35.261Z,44.70
2018-08-27T17:16:03.791Z,44.70
2018-08-27T17:18:32.742Z,44.90
2018-08-27T17:21:01.601Z,45.00
2018-08-27T17:23:30.535Z,45.50
2018-08-27T17:25:59.018Z,46.20
2018-08-27T17:28:32.002Z,46.80
2018-08-27T17:31:00.507Z,47.50
2018-08-27T17:33:29.122Z,47.50
2018-08-27T17:35:57.581Z,47.30
2018-08-27T17:38:27.401Z,47.70
2018-08-27T17:40:58.110Z,48.50
2018-08-27T17:43:26.663Z,48.70
2018-08-27T17:45:55.182Z,48.00
2018-08-27T17:48:23.732Z,48.50
2018-08-27T17:50:53.134Z,48.60
2018-08-27T17:53:21.713Z,48.80
2018-08-27T17:55:50.536Z,49.20
2018-08-27T17:58:19.144Z,49.50
2018-08-27T18:00:47.610Z,49.60
2018-08-27T18:03:17.423Z,49.80
2018-08-27T18:05:46.893Z,50.90
2018-08-27T18:13:10.974Z,51.20
2018-08-27T18:15:39.442Z,52.20
2018-08-27T18:18:07.917Z,52.20
2018-08-27T18:20:38.063Z,52.50
2018-08-27T18:23:06.641Z,52.70
2018-08-27T18:25:36.039Z,52.80
2018-08-27T18:28:04.926Z,53.20
2018-08-27T18:30:33.504Z,53.10
2018-08-27T18:33:02.229Z,53.10
2018-08-27T18:35:30.830Z,53.50
2018-08-27T18:37:59.500Z,54.50
2018-08-27T18:40:28.501Z,53.80
2018-08-27T18:42:57.662Z,54.30
2018-08-27T18:45:26.270Z,54.70
2018-08-27T18:47:54.679Z,54.90
2018-08-27T18:50:23.222Z,55.10
2018-08-27T18:52:53.290Z,55.60
2018-08-27T18:55:21.821Z,56.20
2018-08-27T18:57:51.329Z,56.00
2018-08-27T19:00:20.612Z,56.80
2018-08-27T19:02:49.157Z,57.30
2018-08-27T19:05:17.742Z,57.60
2018-08-27T19:07:46.291Z,57.40
2018-08-27T19:15:16.435Z,58.20
2018-08-27T19:17:44.948Z,58.40
2018-08-27T19:20:13.534Z,58.70
2018-08-27T19:22:42.161Z,58.90
2018-08-27T19:25:10.687Z,59.60
2018-08-27T19:27:39.178Z,60.20
2018-08-27T19:30:07.740Z,61.70
2018-08-27T19:32:36.294Z,61.00
2018-08-27T19:35:04.960Z,61.70
2018-08-27T19:37:33.541Z,61.20
2018-08-27T19:40:02.082Z,60.70
2018-08-27T19:42:30.727Z,60.90
2018-08-27T19:44:59.837Z,61.60
2018-08-27T19:47:28.571Z,62.10
2018-08-27T19:49:57.046Z,61.90
2018-08-27T19:52:26.426Z,62.20
2018-08-27T19:54:56.131Z,62.10
2018-08-27T19:57:24.661Z,61.90
2018-08-27T19:59:53.197Z,62.00
2018-08-27T20:02:24.802Z,62.00
2018-08-27T20:04:53.629Z,62.00
2018-08-27T20:07:22.342Z,61.90
2018-08-27T20:09:50.826Z,63.10
2018-08-27T20:12:19.473Z,63.80
2018-08-27T20:14:48.025Z,65.00
2018-08-27T20:17:17.497Z,65.50
2018-08-27T20:19:45.997Z,66.30
2018-08-27T20:27:14.022Z,69.00
2018-08-27T20:29:42.651Z,71.30
2018-08-27T20:32:11.285Z,71.80
2018-08-27T20:34:39.930Z,72.40
2018-08-27T20:37:08.446Z,72.50
2018-08-27T20:39:37.733Z,73.20
2018-08-27T20:42:06.691Z,73.70
2018-08-27T20:44:35.216Z,74.60
2018-08-27T20:47:03.808Z,75.70
2018-08-27T20:49:32.441Z,76.30
2018-08-27T20:52:00.956Z,77.60
2018-08-27T20:54:29.503Z,78.20
2018-08-27T20:56:58.590Z,79.00
2018-08-27T20:59:26.982Z,79.70
2018-08-27T21:01:56.613Z,81.10
2018-08-27T21:04:25.251Z,83.00
2018-08-27T21:06:53.826Z,83.20
2018-08-27T21:09:22.350Z,84.00
2018-08-27T21:11:51.983Z,84.40
2018-08-27T21:14:43.214Z,84.90
2018-08-27T21:17:11.707Z,86.00
2018-08-27T21:19:40.519Z,86.20
2018-08-27T21:22:09.017Z,86.60
2018-08-27T21:24:37.637Z,86.70
2018-08-27T21:27:06.110Z,86.70
2018-08-27T21:29:34.599Z,87.50
2018-08-27T21:32:03.162Z,87.90
2018-08-27T21:34:31.625Z,88.00
2018-08-27T21:37:00.161Z,87.80
2018-08-27T21:39:28.650Z,88.00
2018-08-27T21:41:57.112Z,88.40
2018-08-27T21:44:25.600Z,88.60
2018-08-27T21:46:54.142Z,88.40
2018-08-27T21:49:22.618Z,88.70
2018-08-27T21:51:51.096Z,89.10
2018-08-27T21:54:20.022Z,89.20
2018-08-27T21:56:48.519Z,89.40
2018-08-27T21:59:18.603Z,89.70
2018-08-27T22:01:48.325Z,90.00
2018-08-27T22:04:17.345Z,89.90
2018-08-27T22:06:45.861Z,90.00
2018-08-27T22:14:14.830Z,89.70
2018-08-27T22:16:43.801Z,89.90
2018-08-27T22:19:12.342Z,90.20
2018-08-27T22:21:40.837Z,90.10
2018-08-27T22:24:09.412Z,90.20
2018-08-27T22:26:37.866Z,90.10
2018-08-27T22:29:06.876Z,90.30
2018-08-27T22:31:35.453Z,90.30
2018-08-27T22:34:03.907Z,90.20
2018-08-27T22:36:32.799Z,90.30
2018-08-27T22:39:01.266Z,90.40
2018-08-27T22:41:29.710Z,90.40
2018-08-27T22:43:58.190Z,90.10
2018-08-27T22:46:26.633Z,90.00
2018-08-27T22:48:55.097Z,90.20
2018-08-27T22:51:23.614Z,89.60
2018-08-27T22:53:52.920Z,90.20
2018-08-27T22:56:21.474Z,89.90
2018-08-27T22:58:50.539Z,89.80
2018-08-27T23:01:19.614Z,90.00
2018-08-27T23:03:53.342Z,90.00
2018-08-27T23:06:29.428Z,90.20
2018-08-27T23:08:57.934Z,89.90
2018-08-27T23:11:26.390Z,90.20
2018-08-27T23:13:54.854Z,90.20
2018-08-27T23:16:29.227Z,90.20
2018-08-27T23:18:58.298Z,90.30
2018-08-27T23:21:26.794Z,90.00
2018-08-27T23:23:55.278Z,89.90
2018-08-27T23:26:24.574Z,90.00
2018-08-27T23:28:53.321Z,90.00
2018-08-27T23:31:21.855Z,90.30
2018-08-27T23:33:50.318Z,90.70
2018-08-27T23:36:18.943Z,90.80
2018-08-27T23:38:47.751Z,90.70
2018-08-27T23:46:11.277Z,91.10
2018-08-27T23:48:39.733Z,91.20
2018-08-27T23:51:08.241Z,91.80
2018-08-27T23:53:36.761Z,91.70
2018-08-27T23:56:05.255Z,91.60
2018-08-27T23:58:33.701Z,91.50
